createdAt,value
2022-12-27T00:00:33.967Z,6.04
2022-12-27T00:01:33.952Z,5.97
2022-12-27T00:02:33.888Z,6.05
2022-12-27T00:03:33.815Z,6.05
2022-12-27T00:04:33.779Z,6.12
2022-12-27T00:05:33.749Z,6.08
2022-12-27T00:06:33.738Z,5.99
2022-12-27T00:07:33.657Z,5.98
2022-12-27T00:08:33.622Z,6.02
2022-12-27T00:09:33.587Z,6.11
2022-12-27T00:10:33.547Z,6.09
2022-12-27T00:11:33.505Z,6.09
2022-12-27T00:12:33.470Z,6.16
2022-12-27T00:13:33.426Z,6.22
2022-12-27T00:14:33.387Z,6.19
2022-12-27T00:15:33.347Z,6.24
2022-12-27T00:16:33.364Z,6.27
2022-12-27T00:17:33.275Z,6.22
2022-12-27T00:18:33.231Z,6.24
2022-12-27T00:19:33.189Z,6.27
2022-12-27T00:20:33.149Z,6.27
2022-12-27T00:21:33.110Z,6.27
2022-12-27T00:22:33.077Z,6.38
2022-12-27T00:23:33.040Z,6.26
2022-12-27T00:24:32.995Z,6.22
2022-12-27T00:25:32.956Z,6.17
2022-12-27T00:26:32.929Z,6.24
2022-12-27T00:27:32.874Z,6.20
2022-12-27T00:28:32.840Z,6.38
2022-12-27T00:29:32.810Z,6.24
2022-12-27T00:30:32.759Z,6.27
2022-12-27T00:31:32.830Z,6.22
2022-12-27T00:32:32.679Z,6.24
2022-12-27T00:33:32.640Z,6.22
2022-12-27T00:34:32.606Z,6.12
2022-12-27T00:35:32.563Z,6.11
2022-12-27T00:36:32.527Z,6.20
2022-12-27T00:37:32.485Z,6.14
2022-12-27T00:38:32.449Z,6.11
2022-12-27T00:39:32.419Z,6.12
2022-12-27T00:40:32.369Z,6.19
2022-12-27T00:41:32.330Z,6.19
2022-12-27T00:42:32.296Z,6.17
2022-12-27T00:43:32.249Z,6.16
2022-12-27T00:44:32.232Z,6.12
2022-12-27T00:45:32.196Z,6.19
2022-12-27T00:46:32.139Z,6.26
2022-12-27T00:47:32.102Z,6.27
2022-12-27T00:48:32.062Z,6.19
2022-12-27T00:49:32.034Z,6.28
2022-12-27T00:50:31.983Z,6.19
2022-12-27T00:51:31.943Z,6.19
2022-12-27T00:52:31.906Z,6.14
2022-12-27T00:53:31.857Z,6.26
2022-12-27T00:54:31.837Z,6.20
2022-12-27T00:55:31.787Z,6.24
2022-12-27T00:56:31.752Z,6.17
2022-12-27T00:57:31.703Z,6.11
2022-12-27T00:58:31.704Z,6.12
2022-12-27T00:59:31.636Z,6.20
2022-12-27T01:00:31.590Z,6.16
2022-12-27T01:01:31.603Z,6.20
2022-12-27T01:02:31.512Z,6.20
2022-12-27T01:03:31.496Z,6.27
2022-12-27T01:04:31.437Z,6.26
2022-12-27T01:05:31.398Z,6.30
2022-12-27T01:06:31.359Z,6.22
2022-12-27T01:07:31.316Z,6.31
2022-12-27T01:08:31.283Z,6.22
2022-12-27T01:09:31.241Z,6.24
2022-12-27T01:10:31.200Z,6.28
2022-12-27T01:11:31.169Z,6.27
2022-12-27T01:12:31.122Z,6.16
2022-12-27T01:13:31.082Z,6.22
2022-12-27T01:14:31.045Z,6.19
2022-12-27T01:15:31.005Z,6.33
2022-12-27T01:16:31.046Z,6.27
2022-12-27T01:17:30.925Z,6.33
2022-12-27T01:18:30.908Z,6.35
2022-12-27T01:19:30.856Z,6.19
2022-12-27T01:20:30.806Z,6.38
2022-12-27T01:21:31.138Z,6.31
2022-12-27T01:22:30.740Z,6.24
2022-12-27T01:23:30.699Z,6.31
2022-12-27T01:24:30.652Z,6.35
2022-12-27T01:25:30.612Z,6.31
2022-12-27T01:26:30.579Z,6.35
2022-12-27T01:27:30.539Z,6.45
2022-12-27T01:28:30.495Z,6.35
2022-12-27T01:29:30.456Z,6.42
2022-12-27T01:30:30.446Z,6.19
2022-12-27T01:31:30.412Z,6.36
2022-12-27T01:32:30.343Z,6.44
2022-12-27T01:33:30.309Z,6.39
2022-12-27T01:34:30.268Z,6.19
2022-12-27T01:35:30.228Z,6.45
2022-12-27T01:36:30.197Z,6.39
2022-12-27T01:37:30.159Z,6.31
2022-12-27T01:38:30.110Z,6.31
2022-12-27T01:39:30.079Z,6.45
2022-12-27T01:40:30.031Z,6.38
2022-12-27T01:41:29.990Z,6.38
2022-12-27T01:42:29.947Z,6.42
2022-12-27T01:43:29.911Z,6.45
2022-12-27T01:44:29.876Z,6.41
2022-12-27T01:45:29.904Z,6.26
2022-12-27T01:46:29.807Z,6.24
2022-12-27T01:47:29.779Z,6.36
2022-12-27T01:48:29.715Z,6.42
2022-12-27T01:49:29.686Z,6.41
2022-12-27T01:50:29.649Z,6.51
2022-12-27T01:51:29.601Z,6.48
2022-12-27T01:52:32.206Z,6.45
2022-12-27T01:53:29.523Z,6.48
2022-12-27T01:54:29.493Z,6.39
2022-12-27T01:55:29.451Z,6.39
2022-12-27T01:56:29.408Z,6.31
2022-12-27T01:57:29.371Z,6.42
2022-12-27T01:58:29.327Z,6.33
2022-12-27T01:59:29.289Z,6.46
2022-12-27T02:00:29.250Z,6.38
2022-12-27T02:01:29.361Z,6.42
2022-12-27T02:02:29.268Z,6.46
2022-12-27T02:03:29.140Z,6.45
2022-12-27T02:04:29.096Z,6.46
2022-12-27T02:05:29.066Z,6.51
2022-12-27T02:06:29.013Z,6.44
2022-12-27T02:07:28.983Z,6.52
2022-12-27T02:08:28.946Z,6.54
2022-12-27T02:09:28.902Z,6.46
2022-12-27T02:10:28.952Z,6.57
2022-12-27T02:11:28.827Z,6.56
2022-12-27T02:12:28.787Z,6.51
2022-12-27T02:13:28.743Z,6.51
2022-12-27T02:14:28.727Z,6.52
2022-12-27T02:15:28.669Z,6.42
2022-12-27T02:16:28.664Z,6.49
2022-12-27T02:17:28.595Z,6.46
2022-12-27T02:18:28.553Z,6.56
2022-12-27T02:19:28.513Z,6.54
2022-12-27T02:20:28.463Z,6.51
2022-12-27T02:21:28.429Z,6.57
2022-12-27T02:22:28.388Z,6.56
2022-12-27T02:23:28.354Z,6.52
2022-12-27T02:24:28.312Z,6.44
2022-12-27T02:25:28.273Z,6.60
2022-12-27T02:26:28.260Z,6.54
2022-12-27T02:27:28.197Z,6.52
2022-12-27T02:28:28.155Z,6.66
2022-12-27T02:29:28.127Z,6.56
2022-12-27T02:30:28.171Z,6.54
2022-12-27T02:31:28.043Z,6.56
2022-12-27T02:32:28.018Z,6.59
2022-12-27T02:33:27.982Z,6.60
2022-12-27T02:34:27.929Z,6.56
2022-12-27T02:35:27.886Z,6.56
2022-12-27T02:36:27.894Z,6.67
2022-12-27T02:37:27.809Z,6.49
2022-12-27T02:38:27.773Z,6.46
2022-12-27T02:39:27.735Z,6.59
2022-12-27T02:40:27.697Z,6.46
2022-12-27T02:41:27.653Z,6.51
2022-12-27T02:42:27.608Z,6.48
2022-12-27T02:43:27.585Z,6.49
2022-12-27T02:44:27.535Z,6.51
2022-12-27T02:45:27.498Z,6.56
2022-12-27T02:46:27.503Z,6.54
2022-12-27T02:47:27.452Z,6.54
2022-12-27T02:48:27.379Z,6.54
2022-12-27T02:49:27.377Z,6.56
2022-12-27T02:50:27.308Z,6.51
2022-12-27T02:51:27.268Z,6.60
2022-12-27T02:52:27.229Z,6.46
2022-12-27T02:53:27.195Z,6.44
2022-12-27T02:54:27.146Z,6.41
2022-12-27T02:55:27.106Z,6.45
2022-12-27T02:56:27.073Z,6.52
2022-12-27T02:57:27.029Z,6.49
2022-12-27T02:58:26.990Z,6.49
2022-12-27T02:59:26.956Z,6.51
2022-12-27T03:00:26.909Z,6.49
2022-12-27T03:01:26.967Z,6.66
2022-12-27T03:02:27.007Z,6.57
2022-12-27T03:03:26.811Z,6.52
2022-12-27T03:04:26.753Z,6.46
2022-12-27T03:05:26.722Z,6.52
2022-12-27T03:06:26.701Z,6.45
2022-12-27T03:07:26.663Z,6.56
2022-12-27T03:08:26.619Z,6.44
2022-12-27T03:09:26.562Z,6.49
2022-12-27T03:10:26.526Z,6.45
2022-12-27T03:11:26.487Z,6.45
2022-12-27T03:12:26.457Z,6.45
2022-12-27T03:13:26.402Z,6.45
2022-12-27T03:14:26.375Z,6.41
2022-12-27T03:15:30.479Z,6.48
2022-12-27T03:16:26.317Z,6.45
2022-12-27T03:17:26.253Z,6.45
2022-12-27T03:18:26.208Z,6.44
2022-12-27T03:19:26.174Z,6.51
2022-12-27T03:20:26.133Z,6.52
2022-12-27T03:21:26.090Z,6.48
2022-12-27T03:22:26.058Z,6.49
2022-12-27T03:23:26.015Z,6.49
2022-12-27T03:24:25.982Z,6.35
2022-12-27T03:25:25.935Z,6.39
2022-12-27T03:26:25.897Z,6.41
2022-12-27T03:27:25.859Z,6.44
2022-12-27T03:28:25.840Z,6.41
2022-12-27T03:29:25.782Z,6.45
2022-12-27T03:30:25.752Z,6.36
2022-12-27T03:31:25.710Z,6.31
2022-12-27T03:32:25.662Z,6.31
2022-12-27T03:33:25.626Z,6.39
2022-12-27T03:34:25.595Z,6.41
2022-12-27T03:35:25.544Z,6.33
2022-12-27T03:36:25.507Z,6.36
2022-12-27T03:37:25.480Z,6.31
2022-12-27T03:38:25.446Z,6.33
2022-12-27T03:39:25.392Z,6.30
2022-12-27T03:40:25.348Z,6.39
2022-12-27T03:41:25.310Z,6.49
2022-12-27T03:42:25.277Z,6.44
2022-12-27T03:43:25.234Z,6.45
2022-12-27T03:44:25.193Z,6.39
2022-12-27T03:45:25.159Z,6.39
2022-12-27T03:46:25.140Z,6.38
2022-12-27T03:47:25.092Z,6.36
2022-12-27T03:48:25.047Z,6.49
2022-12-27T03:49:25.009Z,6.51
2022-12-27T03:50:24.973Z,6.54
2022-12-27T03:51:24.989Z,6.49
2022-12-27T03:52:24.888Z,6.54
2022-12-27T03:53:24.848Z,6.60
2022-12-27T03:54:24.814Z,6.49
2022-12-27T03:55:29.935Z,6.62
2022-12-27T03:56:24.728Z,6.51
2022-12-27T03:57:24.698Z,6.62
2022-12-27T03:58:24.647Z,6.52
2022-12-27T03:59:24.611Z,6.49
2022-12-27T04:00:24.571Z,6.48
2022-12-27T04:01:24.637Z,6.51
2022-12-27T04:02:24.700Z,6.60
2022-12-27T04:03:24.543Z,6.51
2022-12-27T04:04:24.415Z,6.49
2022-12-27T04:05:24.396Z,6.52
2022-12-27T04:06:24.347Z,6.52
2022-12-27T04:07:24.300Z,6.51
2022-12-27T04:08:24.259Z,6.49
2022-12-27T04:09:24.217Z,6.49
2022-12-27T04:10:24.183Z,6.48
2022-12-27T04:11:24.145Z,6.46
2022-12-27T04:12:24.105Z,6.44
2022-12-27T04:13:24.064Z,6.45
2022-12-27T04:14:24.035Z,6.42
2022-12-27T04:15:23.990Z,6.49
2022-12-27T04:16:24.022Z,6.54
2022-12-27T04:17:23.913Z,6.57
2022-12-27T04:18:23.867Z,6.51
2022-12-27T04:19:23.830Z,6.42
2022-12-27T04:20:23.788Z,6.51
2022-12-27T04:21:23.770Z,6.63
2022-12-27T04:22:23.717Z,6.54
2022-12-27T04:23:23.671Z,6.63
2022-12-27T04:24:23.634Z,6.52
2022-12-27T04:25:23.621Z,6.60
2022-12-27T04:26:23.563Z,6.56
2022-12-27T04:27:23.517Z,6.52
2022-12-27T04:28:23.479Z,6.59
2022-12-27T04:29:23.444Z,6.54
2022-12-27T04:30:23.400Z,6.54
2022-12-27T04:31:23.395Z,6.57
2022-12-27T04:32:23.332Z,6.45
2022-12-27T04:33:23.309Z,6.46
2022-12-27T04:34:23.247Z,6.52
2022-12-27T04:35:23.210Z,6.54
2022-12-27T04:36:23.166Z,6.56
2022-12-27T04:37:23.131Z,6.52
2022-12-27T04:38:23.127Z,6.56
2022-12-27T04:39:23.052Z,6.60
2022-12-27T04:40:23.020Z,6.52
2022-12-27T04:41:22.975Z,6.72
2022-12-27T04:42:22.945Z,6.62
2022-12-27T04:43:22.899Z,6.60
2022-12-27T04:44:22.868Z,6.66
2022-12-27T04:45:22.816Z,6.59
2022-12-27T04:46:22.803Z,6.59
2022-12-27T04:47:22.742Z,6.57
2022-12-27T04:48:22.701Z,6.56
2022-12-27T04:49:22.659Z,6.66
2022-12-27T04:50:22.627Z,6.59
2022-12-27T04:51:22.582Z,6.66
2022-12-27T04:52:22.563Z,6.77
2022-12-27T04:53:22.513Z,6.74
2022-12-27T04:54:22.470Z,6.77
2022-12-27T04:55:22.445Z,6.72
2022-12-27T04:56:22.401Z,6.72
2022-12-27T04:57:22.353Z,6.69
2022-12-27T04:58:22.312Z,6.72
2022-12-27T04:59:22.273Z,6.69
2022-12-27T05:00:22.236Z,6.77
2022-12-27T05:01:22.298Z,6.85
2022-12-27T05:02:22.325Z,6.79
2022-12-27T05:03:22.172Z,6.81
2022-12-27T05:04:22.074Z,6.75
2022-12-27T05:05:22.064Z,6.78
2022-12-27T05:06:22.002Z,6.60
2022-12-27T05:07:21.973Z,6.70
2022-12-27T05:08:21.929Z,6.67
2022-12-27T05:09:23.340Z,6.75
2022-12-27T05:10:21.855Z,6.74
2022-12-27T05:11:21.808Z,6.69
2022-12-27T05:12:21.773Z,6.70
2022-12-27T05:13:21.723Z,6.75
2022-12-27T05:14:21.725Z,6.75
2022-12-27T05:15:21.660Z,6.70
2022-12-27T05:16:21.651Z,6.75
2022-12-27T05:17:21.576Z,6.74
2022-12-27T05:18:21.544Z,6.84
2022-12-27T05:19:21.502Z,6.77
2022-12-27T05:20:21.468Z,6.77
2022-12-27T05:21:21.414Z,6.70
2022-12-27T05:22:21.380Z,6.69
2022-12-27T05:23:21.345Z,6.74
2022-12-27T05:24:21.298Z,6.75
2022-12-27T05:25:21.280Z,6.77
2022-12-27T05:26:21.240Z,6.64
2022-12-27T05:27:21.183Z,6.62
2022-12-27T05:28:21.152Z,6.66
2022-12-27T05:29:21.111Z,6.72
2022-12-27T05:30:21.068Z,6.74
2022-12-27T05:31:21.093Z,6.78
2022-12-27T05:32:20.995Z,6.77
2022-12-27T05:33:20.951Z,6.77
2022-12-27T05:34:20.908Z,6.74
2022-12-27T05:35:20.870Z,6.67
2022-12-27T05:36:20.829Z,6.66
2022-12-27T05:37:20.795Z,6.66
2022-12-27T05:38:20.756Z,6.60
2022-12-27T05:39:20.723Z,6.62
2022-12-27T05:40:20.680Z,6.66
2022-12-27T05:41:20.642Z,6.63
2022-12-27T05:42:20.604Z,6.52
2022-12-27T05:43:20.559Z,6.57
2022-12-27T05:44:20.524Z,6.54
2022-12-27T05:45:20.488Z,6.56
2022-12-27T05:46:20.487Z,6.54
2022-12-27T05:47:20.411Z,6.64
2022-12-27T05:48:20.369Z,6.66
2022-12-27T05:49:20.327Z,6.62
2022-12-27T05:50:20.297Z,6.64
2022-12-27T05:51:20.254Z,6.57
2022-12-27T05:52:20.213Z,6.54
2022-12-27T05:53:20.173Z,6.54
2022-12-27T05:54:20.135Z,6.49
2022-12-27T05:55:20.119Z,6.54
2022-12-27T05:56:20.062Z,6.49
2022-12-27T05:57:20.019Z,6.46
2022-12-27T05:58:19.978Z,6.46
2022-12-27T05:59:19.938Z,6.59
2022-12-27T06:00:19.902Z,6.46
2022-12-27T06:01:19.937Z,6.49
2022-12-27T06:02:20.115Z,6.54
2022-12-27T06:03:19.872Z,6.48
2022-12-27T06:04:19.746Z,6.51
2022-12-27T06:05:19.711Z,6.51
2022-12-27T06:06:19.678Z,6.57
2022-12-27T06:07:19.646Z,6.48
2022-12-27T06:08:19.591Z,6.49
2022-12-27T06:09:19.549Z,6.46
2022-12-27T06:10:19.510Z,6.45
2022-12-27T06:11:19.483Z,6.49
2022-12-27T06:12:19.433Z,6.46
2022-12-27T06:13:19.395Z,6.31
2022-12-27T06:14:19.360Z,6.35
2022-12-27T06:15:19.319Z,6.48
2022-12-27T06:16:19.298Z,6.39
2022-12-27T06:17:19.236Z,6.38
2022-12-27T06:18:19.203Z,6.45
2022-12-27T06:19:19.166Z,6.36
2022-12-27T06:20:19.124Z,6.22
2022-12-27T06:21:19.122Z,6.22
2022-12-27T06:22:19.044Z,6.14
2022-12-27T06:23:19.025Z,6.27
2022-12-27T06:24:18.975Z,6.19
2022-12-27T06:25:18.922Z,6.27
2022-12-27T06:26:18.906Z,6.12
2022-12-27T06:27:18.855Z,6.16
2022-12-27T06:28:18.817Z,6.20
2022-12-27T06:29:18.780Z,6.27
2022-12-27T06:30:18.732Z,6.38
2022-12-27T06:31:18.882Z,6.22
2022-12-27T06:32:18.653Z,6.12
2022-12-27T06:33:18.624Z,6.20
2022-12-27T06:34:18.581Z,6.14
2022-12-27T06:35:18.569Z,6.14
2022-12-27T06:36:18.493Z,6.17
2022-12-27T06:37:18.456Z,6.14
2022-12-27T06:38:18.416Z,6.19
2022-12-27T06:39:18.378Z,6.20
2022-12-27T06:40:18.341Z,6.26
2022-12-27T06:41:18.321Z,6.11
2022-12-27T06:42:18.271Z,6.20
2022-12-27T06:43:18.247Z,6.20
2022-12-27T06:44:18.213Z,6.24
2022-12-27T06:45:18.145Z,6.19
2022-12-27T06:46:18.663Z,6.16
2022-12-27T06:47:18.070Z,6.14
2022-12-27T06:48:18.035Z,6.20
2022-12-27T06:49:17.989Z,6.20
2022-12-27T06:50:17.967Z,6.12
2022-12-27T06:51:17.917Z,6.19
2022-12-27T06:52:17.871Z,6.12
2022-12-27T06:53:17.837Z,6.17
2022-12-27T06:54:17.797Z,6.12
2022-12-27T06:55:17.751Z,6.14
2022-12-27T06:56:17.739Z,6.19
2022-12-27T06:57:17.672Z,6.16
2022-12-27T06:58:17.643Z,6.12
2022-12-27T06:59:17.604Z,6.12
2022-12-27T07:00:17.583Z,6.20
2022-12-27T07:01:17.597Z,6.11
2022-12-27T07:02:17.548Z,6.12
2022-12-27T07:03:17.556Z,6.20
2022-12-27T07:04:17.408Z,6.26
2022-12-27T07:05:17.367Z,6.26
2022-12-27T07:06:17.340Z,6.17
2022-12-27T07:07:17.295Z,6.02
2022-12-27T07:08:17.249Z,6.19
2022-12-27T07:09:17.237Z,6.14
2022-12-27T07:10:17.165Z,6.14
2022-12-27T07:11:17.141Z,6.20
2022-12-27T07:12:17.089Z,6.16
2022-12-27T07:13:17.050Z,6.17
2022-12-27T07:14:17.011Z,6.22
2022-12-27T07:15:16.983Z,6.20
2022-12-27T07:16:16.973Z,6.19
2022-12-27T07:17:16.907Z,6.19
2022-12-27T07:18:16.858Z,6.11
2022-12-27T07:19:16.817Z,6.09
2022-12-27T07:20:16.779Z,6.14
2022-12-27T07:21:16.739Z,6.12
2022-12-27T07:22:16.707Z,6.14
2022-12-27T07:23:19.378Z,6.20
2022-12-27T07:24:16.632Z,6.14
2022-12-27T07:25:16.587Z,6.17
2022-12-27T07:26:16.540Z,6.17
2022-12-27T07:27:16.524Z,6.22
2022-12-27T07:28:16.467Z,6.19
2022-12-27T07:29:16.442Z,6.22
2022-12-27T07:30:16.385Z,6.17
2022-12-27T07:31:16.460Z,6.28
2022-12-27T07:32:16.322Z,6.36
2022-12-27T07:33:16.276Z,6.33
2022-12-27T07:34:16.245Z,6.24
2022-12-27T07:35:16.197Z,6.20
2022-12-27T07:36:16.191Z,6.27
2022-12-27T07:37:16.114Z,6.31
2022-12-27T07:38:16.092Z,6.38
2022-12-27T07:39:16.035Z,6.24
2022-12-27T07:40:15.996Z,6.20
2022-12-27T07:41:15.960Z,6.26
2022-12-27T07:42:15.919Z,6.33
2022-12-27T07:43:15.890Z,6.17
2022-12-27T07:44:15.847Z,6.22
2022-12-27T07:45:15.808Z,6.38
2022-12-27T07:46:15.806Z,6.35
2022-12-27T07:47:15.727Z,6.45
2022-12-27T07:48:15.687Z,6.38
2022-12-27T07:49:18.039Z,6.28
2022-12-27T07:50:15.610Z,6.35
2022-12-27T07:51:15.572Z,6.26
2022-12-27T07:52:15.538Z,6.33
2022-12-27T07:53:15.513Z,6.44
2022-12-27T07:54:15.460Z,6.45
2022-12-27T07:55:15.420Z,6.46
2022-12-27T07:56:20.196Z,6.48
2022-12-27T07:57:15.334Z,6.49
2022-12-27T07:58:15.300Z,6.60
2022-12-27T07:59:15.270Z,6.56
2022-12-27T08:00:15.226Z,6.52
2022-12-27T08:01:15.290Z,6.60
2022-12-27T08:02:15.213Z,6.59
2022-12-27T08:03:15.155Z,6.62
2022-12-27T08:04:15.068Z,6.60
2022-12-27T08:05:15.025Z,6.66
2022-12-27T08:06:14.984Z,6.64
2022-12-27T08:07:14.954Z,6.64
2022-12-27T08:08:14.909Z,6.70
2022-12-27T08:09:14.870Z,6.77
2022-12-27T08:10:14.834Z,6.59
2022-12-27T08:11:14.799Z,6.67
2022-12-27T08:12:14.764Z,6.62
2022-12-27T08:13:14.720Z,6.74
2022-12-27T08:14:14.677Z,6.75
2022-12-27T08:15:14.634Z,6.77
2022-12-27T08:16:14.612Z,6.74
2022-12-27T08:17:14.563Z,6.85
2022-12-27T08:18:14.518Z,6.84
2022-12-27T08:19:14.489Z,6.85
2022-12-27T08:20:14.450Z,6.84
2022-12-27T08:21:14.406Z,6.88
2022-12-27T08:22:14.416Z,6.85
2022-12-27T08:23:14.349Z,6.84
2022-12-27T08:24:14.293Z,6.87
2022-12-27T08:25:14.268Z,6.93
2022-12-27T08:26:14.243Z,6.89
2022-12-27T08:27:14.182Z,6.88
2022-12-27T08:28:14.135Z,6.92
2022-12-27T08:29:14.113Z,6.93
2022-12-27T08:30:14.085Z,7.07
2022-12-27T08:31:14.159Z,7.02
2022-12-27T08:32:13.985Z,6.99
2022-12-27T08:33:13.953Z,6.99
2022-12-27T08:34:13.903Z,6.99
2022-12-27T08:35:50.067Z,7.07
2022-12-27T08:37:13.792Z,7.07
2022-12-27T08:38:13.756Z,7.02
2022-12-27T08:39:13.712Z,7.14
2022-12-27T08:40:13.674Z,7.15
2022-12-27T08:41:13.631Z,7.15
2022-12-27T08:42:13.609Z,7.18
2022-12-27T08:43:13.573Z,7.18
2022-12-27T08:44:13.521Z,7.23
2022-12-27T08:45:13.495Z,7.15
2022-12-27T08:46:13.487Z,7.24
2022-12-27T08:47:13.405Z,7.24
2022-12-27T08:48:13.408Z,7.24
2022-12-27T08:49:13.331Z,7.15
2022-12-27T08:50:13.299Z,7.23
2022-12-27T08:51:16.596Z,7.20
2022-12-27T08:52:13.207Z,7.23
2022-12-27T08:53:13.175Z,7.29
2022-12-27T08:54:13.138Z,7.25
2022-12-27T08:55:13.104Z,7.36
2022-12-27T08:56:13.061Z,7.28
2022-12-27T08:57:13.023Z,7.38
2022-12-27T08:58:16.410Z,7.39
2022-12-27T08:59:13.002Z,7.38
2022-12-27T09:00:12.920Z,7.45
2022-12-27T09:01:12.894Z,7.54
2022-12-27T09:02:12.966Z,7.36
2022-12-27T09:03:12.842Z,7.48
2022-12-27T09:04:12.918Z,7.48
2022-12-27T09:05:12.717Z,7.47
2022-12-27T09:06:12.678Z,7.48
2022-12-27T09:07:12.649Z,7.51
2022-12-27T09:08:12.592Z,7.48
2022-12-27T09:09:12.574Z,7.48
2022-12-27T09:10:12.524Z,7.61
2022-12-27T09:11:12.480Z,7.57
2022-12-27T09:12:12.469Z,7.61
2022-12-27T09:13:12.410Z,7.60
2022-12-27T09:14:12.381Z,7.60
2022-12-27T09:15:12.335Z,7.61
2022-12-27T09:16:12.345Z,7.58
2022-12-27T09:17:12.260Z,7.66
2022-12-27T09:18:12.217Z,7.63
2022-12-27T09:19:12.202Z,7.70
2022-12-27T09:20:12.214Z,7.66
2022-12-27T09:21:12.125Z,7.73
2022-12-27T09:22:12.070Z,7.85
2022-12-27T09:23:12.033Z,7.73
2022-12-27T09:24:11.995Z,7.69
2022-12-27T09:25:12.022Z,7.76
2022-12-27T09:26:11.928Z,7.76
2022-12-27T09:27:11.878Z,7.85
2022-12-27T09:28:11.835Z,7.82
2022-12-27T09:29:11.821Z,7.82
2022-12-27T09:30:11.799Z,7.91
2022-12-27T09:31:11.823Z,7.93
2022-12-27T09:32:11.684Z,7.82
2022-12-27T09:33:11.645Z,7.87
2022-12-27T09:34:11.607Z,7.94
2022-12-27T09:35:11.582Z,7.98
2022-12-27T09:36:11.549Z,8.08
2022-12-27T09:37:11.504Z,8.08
2022-12-27T09:38:11.449Z,8.08
2022-12-27T09:39:11.410Z,8.05
2022-12-27T09:40:11.378Z,8.16
2022-12-27T09:41:11.333Z,8.19
2022-12-27T09:42:47.698Z,8.16
2022-12-27T09:43:22.337Z,8.18
2022-12-27T09:44:11.232Z,8.24
2022-12-27T09:45:11.185Z,8.27
2022-12-27T09:46:11.241Z,8.20
2022-12-27T09:47:11.115Z,8.28
2022-12-27T09:48:11.098Z,8.28
2022-12-27T09:49:11.036Z,8.24
2022-12-27T09:50:10.998Z,8.36
2022-12-27T09:51:11.130Z,8.41
2022-12-27T09:52:10.918Z,8.41
2022-12-27T09:53:10.890Z,8.33
2022-12-27T09:54:10.842Z,8.38
2022-12-27T09:55:10.804Z,8.45
2022-12-27T09:56:10.759Z,8.48
2022-12-27T09:57:19.925Z,8.58
2022-12-27T09:58:10.689Z,8.69
2022-12-27T09:59:10.652Z,8.63
2022-12-27T10:00:10.615Z,8.63
2022-12-27T10:01:10.652Z,8.73
2022-12-27T10:02:10.637Z,8.81
2022-12-27T10:03:10.513Z,8.92
2022-12-27T10:04:10.527Z,8.87
2022-12-27T10:05:20.186Z,8.85
2022-12-27T10:06:10.439Z,8.94
2022-12-27T10:07:10.353Z,8.94
2022-12-27T10:08:10.312Z,8.92
2022-12-27T10:09:10.280Z,8.92
2022-12-27T10:10:10.248Z,8.92
2022-12-27T10:11:10.201Z,8.99
2022-12-27T10:12:10.164Z,9.06
2022-12-27T10:13:10.123Z,9.13
2022-12-27T10:14:10.084Z,9.25
2022-12-27T10:15:10.066Z,9.19
2022-12-27T10:16:10.085Z,9.21
2022-12-27T10:17:09.984Z,9.36
2022-12-27T10:18:09.942Z,9.23
2022-12-27T10:19:09.895Z,9.36
2022-12-27T10:20:09.863Z,9.47
2022-12-27T10:21:09.827Z,9.37
2022-12-27T10:22:09.789Z,9.40
2022-12-27T10:23:09.752Z,9.40
2022-12-27T10:24:09.715Z,9.46
2022-12-27T10:25:09.676Z,9.40
2022-12-27T10:26:09.639Z,9.40
2022-12-27T10:27:09.597Z,9.43
2022-12-27T10:28:09.564Z,9.46
2022-12-27T10:29:09.530Z,9.41
2022-12-27T10:30:09.510Z,9.34
2022-12-27T10:31:09.494Z,9.39
2022-12-27T10:32:09.415Z,9.46
2022-12-27T10:33:09.409Z,9.44
2022-12-27T10:34:10.854Z,9.44
2022-12-27T10:35:09.304Z,9.44
2022-12-27T10:36:09.284Z,9.44
2022-12-27T10:37:09.234Z,9.44
2022-12-27T10:38:09.195Z,9.58
2022-12-27T10:39:09.157Z,9.58
2022-12-27T10:40:09.115Z,9.55
2022-12-27T10:41:09.081Z,9.64
2022-12-27T10:42:09.048Z,9.69
2022-12-27T10:43:09.011Z,9.58
2022-12-27T10:44:08.968Z,9.68
2022-12-27T10:45:08.933Z,9.77
2022-12-27T10:46:08.953Z,9.68
2022-12-27T10:47:08.895Z,9.72
2022-12-27T10:48:08.817Z,9.66
2022-12-27T10:49:24.267Z,9.79
2022-12-27T10:50:08.752Z,9.91
2022-12-27T10:51:08.706Z,9.94
2022-12-27T10:52:08.676Z,9.99
2022-12-27T10:53:08.635Z,10.09
2022-12-27T10:54:08.608Z,10.12
2022-12-27T10:55:08.566Z,10.09
2022-12-27T10:56:08.538Z,10.23
2022-12-27T10:57:08.502Z,10.19
2022-12-27T10:58:08.453Z,10.15
2022-12-27T10:59:08.416Z,10.23
2022-12-27T11:00:08.374Z,10.40
2022-12-27T11:01:08.364Z,10.44
2022-12-27T11:02:08.382Z,10.46
2022-12-27T11:03:08.386Z,10.53
2022-12-27T11:04:08.231Z,10.38
2022-12-27T11:05:08.190Z,10.53
2022-12-27T11:06:08.159Z,10.38
2022-12-27T11:07:08.129Z,10.56
2022-12-27T11:08:08.085Z,10.49
2022-12-27T11:09:08.043Z,10.57
2022-12-27T11:10:08.013Z,10.72
2022-12-27T11:11:07.983Z,10.76
2022-12-27T11:12:07.939Z,10.81
2022-12-27T11:13:07.905Z,10.78
2022-12-27T11:14:07.870Z,10.90
2022-12-27T11:15:07.835Z,10.74
2022-12-27T11:16:07.831Z,10.78
2022-12-27T11:17:07.752Z,10.87
2022-12-27T11:18:07.722Z,10.82
2022-12-27T11:19:07.685Z,10.74
2022-12-27T11:20:07.644Z,10.68
2022-12-27T11:21:08.924Z,10.61
2022-12-27T11:22:07.593Z,10.67
2022-12-27T11:23:07.543Z,10.71
2022-12-27T11:24:07.510Z,10.69
2022-12-27T11:25:07.473Z,10.63
2022-12-27T11:26:07.442Z,10.68
2022-12-27T11:27:07.397Z,10.59
2022-12-27T11:28:07.357Z,10.56
2022-12-27T11:29:07.322Z,10.63
2022-12-27T11:30:07.291Z,10.63
2022-12-27T11:31:07.284Z,10.44
2022-12-27T11:32:07.218Z,10.34
2022-12-27T11:33:07.180Z,10.46
2022-12-27T11:34:07.138Z,10.54
2022-12-27T11:35:07.100Z,10.53
2022-12-27T11:36:07.066Z,10.46
2022-12-27T11:37:07.029Z,10.54
2022-12-27T11:38:06.995Z,10.57
2022-12-27T11:39:06.950Z,10.60
2022-12-27T11:40:06.934Z,10.60
2022-12-27T11:41:06.885Z,10.74
2022-12-27T11:42:06.861Z,10.81
2022-12-27T11:43:06.828Z,10.69
2022-12-27T11:44:06.772Z,10.71
2022-12-27T11:45:06.838Z,10.71
2022-12-27T11:46:06.716Z,10.76
2022-12-27T11:47:06.734Z,10.82
2022-12-27T11:48:06.653Z,10.86
2022-12-27T11:49:06.594Z,10.86
2022-12-27T11:50:06.557Z,10.87
2022-12-27T11:51:06.524Z,10.75
2022-12-27T11:52:06.509Z,10.87
2022-12-27T11:53:06.443Z,10.93
2022-12-27T11:54:06.418Z,10.86
2022-12-27T11:55:06.372Z,10.86
2022-12-27T11:56:06.343Z,11.02
2022-12-27T11:57:06.308Z,11.15
2022-12-27T11:58:06.277Z,11.11
2022-12-27T11:59:06.229Z,11.26
2022-12-27T12:00:06.272Z,11.18
2022-12-27T12:01:06.150Z,10.94
2022-12-27T12:02:06.249Z,10.94
2022-12-27T12:03:06.303Z,10.89
2022-12-27T12:04:06.054Z,10.89
2022-12-27T12:05:06.014Z,11.00
2022-12-27T12:06:05.975Z,11.08
2022-12-27T12:07:05.950Z,11.10
2022-12-27T12:08:05.902Z,11.11
2022-12-27T12:09:05.871Z,10.97
2022-12-27T12:10:05.831Z,10.92
2022-12-27T12:11:05.791Z,10.78
2022-12-27T12:12:05.780Z,10.90
2022-12-27T12:13:05.719Z,10.87
2022-12-27T12:14:05.696Z,11.02
2022-12-27T12:15:05.653Z,11.11
2022-12-27T12:16:05.695Z,11.15
2022-12-27T12:17:05.584Z,11.19
2022-12-27T12:18:05.551Z,11.19
2022-12-27T12:19:05.514Z,11.17
2022-12-27T12:20:05.483Z,11.25
2022-12-27T12:21:05.433Z,11.19
2022-12-27T12:22:05.397Z,11.14
2022-12-27T12:23:05.355Z,10.96
2022-12-27T12:24:05.329Z,10.89
2022-12-27T12:25:05.290Z,10.92
2022-12-27T12:26:05.257Z,10.78
2022-12-27T12:27:05.217Z,10.92
2022-12-27T12:28:17.455Z,11.02
2022-12-27T12:29:05.145Z,10.99
2022-12-27T12:30:05.115Z,11.05
2022-12-27T12:31:05.078Z,11.07
2022-12-27T12:32:05.166Z,11.15
2022-12-27T12:33:05.008Z,11.12
2022-12-27T12:34:04.961Z,11.07
2022-12-27T12:35:04.934Z,11.11
2022-12-27T12:36:04.889Z,11.15
2022-12-27T12:37:04.854Z,11.23
2022-12-27T12:38:04.837Z,11.05
2022-12-27T12:39:04.777Z,11.05
2022-12-27T12:40:04.747Z,11.07
2022-12-27T12:41:04.719Z,11.19
2022-12-27T12:42:04.682Z,11.23
2022-12-27T12:43:04.629Z,11.36
2022-12-27T12:44:04.598Z,11.43
2022-12-27T12:45:04.617Z,11.35
2022-12-27T12:46:04.586Z,11.47
2022-12-27T12:47:04.491Z,11.27
2022-12-27T12:48:04.451Z,11.25
2022-12-27T12:49:04.419Z,11.17
2022-12-27T12:50:07.928Z,10.92
2022-12-27T12:51:04.359Z,11.18
2022-12-27T12:52:04.318Z,11.14
2022-12-27T12:53:04.311Z,11.14
2022-12-27T12:54:04.240Z,11.04
2022-12-27T12:55:04.200Z,11.15
2022-12-27T12:56:04.179Z,10.97
2022-12-27T12:57:04.125Z,10.81
2022-12-27T12:58:04.096Z,10.75
2022-12-27T12:59:04.056Z,10.81
2022-12-27T13:00:04.025Z,10.96
2022-12-27T13:01:04.051Z,10.92
2022-12-27T13:02:04.115Z,10.81
2022-12-27T13:03:04.064Z,11.04
2022-12-27T13:04:03.922Z,11.23
2022-12-27T13:05:03.837Z,11.07
2022-12-27T13:06:03.806Z,11.22
2022-12-27T13:07:03.794Z,11.18
2022-12-27T13:08:03.737Z,10.89
2022-12-27T13:09:03.695Z,11.04
2022-12-27T13:10:03.664Z,11.17
2022-12-27T13:11:03.626Z,11.14
2022-12-27T13:12:03.695Z,11.05
2022-12-27T13:13:03.549Z,11.12
2022-12-27T13:14:03.527Z,11.08